map of MNL home
MNL - Airport
Location
City:  Manila, Philippines
Name:Ninoy Aquino International Airport
ICAO:RPLL
IATA:MNL

Details
Type:Airport (Aerodrome, Airfield)
Use:Public/Civil, Military, International (customs port of entry)
Latitude:14°30'31"N (14.508647)
Longitude:121°01'10"E (121.019581)
Datum:WGS 1984
Elevation:75 ft (23 m)
Variation:2.22°W (WMM2015v2 magnetic declination)
-0.08° annual change
Runways:2
Longest:12261 × 197 ft (3737 × 60 m), paved

Time
Time Zone:UTC+8
Local Time:

Weather
METAR:RPLL 041400Z 10008KT 9999 FEW025 25/20 Q1016 NOSIG RMK A3000
TAF:RPLL 041100Z 0412/0518 10008KT 9999 FEW025 TX31/0506Z TN23/0422Z
TEMPO 0415/0421 06005KT
TEMPO 0504/0510 11015KT FEW023 SCT100

Related Locations
Nearby:
Farthest:SIKQ: 12425 mi / 19996 km
Conquista D`Oeste [Fazenda Sararé], MT, BR

Find:

   beyond  
but within

Other Information
Maps:
NOTAMs:
Links:
Sources:

  
  • flag of Philippines
  

Airport Diagram

Airport diagram for MNL

Larger airport diagram (OBSOLETE) from NGA

Sectional Chart

Flight Planning
at skyvector.com

Satellite Image

Google Maps Satellite view

 

Copyright © 2004-2019 Karl L. Swartz. All rights reserved.
The Great Circle Mapper name and logo are trademarks of the Great Circle Mapper.
All other trademarks mentioned herein belong to their respective owners.
Please see credits for attibutions and further copyright information.

  Follow gcmap on Facebook Follow gcmap on Twitter GCmap on LinkedIn

hCard Microformat

Geo Microformat